Nur — E5U2974 — position and weather

sailwx.info

Track history (hours):
 
Tides and Currents Weather Stations Pressure Air Temp Water Temp Dewpoint Dewpoint Depression Visibility Wind Speed Wind Dir Waves Ship Positions

Nur

Last reported at 2017-Nov-20 00:30 UTC. Time now 2017-Nov-21 19:24 UTC.
Position N 43°39' E 039°02'.

Length 81 m; draft 3.4 m.

Type: Cargo ship. MMSI: 518100029.

Date/timePositionNaut miles runAvg speedWind from/ knotsBaromVisibWave heightAir tempDewpointWater temp
2017-Nov-20 00:30N 43°39' E 039°02'5 9.3
2017-Nov-20 00:00N 43°36' E 039°07'  
2017-Nov-14 07:05N 46°21' E 030°55'1 8.5
2017-Nov-14 06:58N 46°22' E 030°55'5 8.4
2017-Nov-14 06:24N 46°27' E 030°55'4 8.4
2017-Nov-14 05:53N 46°31' E 030°55'26 7.7
2017-Nov-14 02:33N 46°35' E 031°32'3 8.4
2017-Nov-14 02:11N 46°35' E 031°37'2 8.4
2017-Nov-14 01:58N 46°36' E 031°39'4 8.5
2017-Nov-14 01:29N 46°36' E 031°45'4 8.1
2017-Nov-14 01:00N 46°37' E 031°51'4 8.2
2017-Nov-14 00:30N 46°39' E 031°56'4 8.3
2017-Nov-14 00:00N 46°43' E 031°56'4 7.7
2017-Nov-13 23:30N 46°47' E 031°53'4 7.7
2017-Nov-13 23:00N 46°50' E 031°56'3 5.1
2017-Nov-13 22:30N 46°51' E 031°59'0 0.0
2017-Nov-13 22:00N 46°51' E 031°59'0 0.0
2017-Nov-13 02:00N 46°51' E 031°59'0 0.0
2017-Nov-13 01:30N 46°51' E 031°59'0 0.0
2017-Nov-13 01:00N 46°51' E 031°59'0 0.0
2017-Nov-13 00:30N 46°51' E 031°59'0 0.0
2017-Nov-13 00:00N 46°51' E 031°59'0 0.0
2017-Nov-12 23:27N 46°51' E 031°59'0 0.0
2017-Nov-12 23:00N 46°51' E 031°59'0 0.0
2017-Nov-12 22:30N 46°51' E 031°59'0 0.0
2017-Nov-12 22:00N 46°51' E 031°59'0 0.0
2017-Nov-12 21:30N 46°51' E 031°59'0 0.0
2017-Nov-12 21:00N 46°51' E 031°59'0 0.0
2017-Nov-12 20:27N 46°51' E 031°59'0 0.0
2017-Nov-12 20:00N 46°51' E 031°59'0 0.0
2017-Nov-12 19:30N 46°51' E 031°59'0 0.0
2017-Nov-12 19:00N 46°51' E 031°59'0 0.0
2017-Nov-12 18:30N 46°51' E 031°59'0 0.0
2017-Nov-12 18:00N 46°51' E 031°59'0 0.0
2017-Nov-12 17:30N 46°51' E 031°59'0 0.0
2017-Nov-12 17:00N 46°51' E 031°59'0 0.0
2017-Nov-12 16:30N 46°51' E 031°59'0 0.0
2017-Nov-12 16:00N 46°51' E 031°59'0 0.0
2017-Nov-12 15:30N 46°51' E 031°59'0 0.0
2017-Nov-12 15:00N 46°51' E 031°59'0 0.0
2017-Nov-12 14:30N 46°51' E 031°59'0 0.0
2017-Nov-12 14:00N 46°51' E 031°59'0 0.0
2017-Nov-12 13:30N 46°51' E 031°59'0 0.0
2017-Nov-12 13:00N 46°51' E 031°59'0 0.0
2017-Nov-12 12:30N 46°51' E 031°59'0 0.0
2017-Nov-12 12:00N 46°51' E 031°59'0 0.0
2017-Nov-12 11:30N 46°51' E 031°59'0 0.0
2017-Nov-12 11:00N 46°51' E 031°59'0 0.0
2017-Nov-12 10:30N 46°51' E 031°59'0 0.0
2017-Nov-12 10:00N 46°51' E 031°59'0 0.0
2017-Nov-12 09:30N 46°51' E 031°59'0 0.0
2017-Nov-12 09:00N 46°51' E 031°59'0 0.0
2017-Nov-12 08:30N 46°51' E 031°59'0 0.0
2017-Nov-12 07:57N 46°51' E 031°59'0 0.0
2017-Nov-12 07:30N 46°51' E 031°59'0 0.0
2017-Nov-12 07:00N 46°51' E 031°59'0 0.0
2017-Nov-12 06:30N 46°51' E 031°59'0 0.0
2017-Nov-12 06:00N 46°51' E 031°59'0 0.0
2017-Nov-12 05:30N 46°51' E 031°59'0 0.0
2017-Nov-12 05:00N 46°51' E 031°59'0 0.0
2017-Nov-12 04:30N 46°51' E 031°59'0 0.0
2017-Nov-12 04:00N 46°51' E 031°59'0 0.0
2017-Nov-12 03:30N 46°51' E 031°59'0 0.0
2017-Nov-12 03:00N 46°51' E 031°59'0 0.0
2017-Nov-12 02:30N 46°51' E 031°59'0 0.0
2017-Nov-12 02:00N 46°51' E 031°59'0 0.0
2017-Nov-12 01:30N 46°51' E 031°59'0 0.0
2017-Nov-12 01:00N 46°51' E 031°59'0 0.0
2017-Nov-12 00:30N 46°51' E 031°59'0 0.0
2017-Nov-12 00:00N 46°51' E 031°59'0 0.0
2017-Nov-11 23:30N 46°51' E 031°59'0 0.0
2017-Nov-11 23:00N 46°51' E 031°59'0 0.0
2017-Nov-11 22:30N 46°51' E 031°59'0 0.0
2017-Nov-11 22:00N 46°51' E 031°59'0 0.0
2017-Nov-11 21:27N 46°51' E 031°59'0 0.0
2017-Nov-11 21:00N 46°51' E 031°59'0 0.0
2017-Nov-11 20:30N 46°51' E 031°59'0 0.0
2017-Nov-11 20:00N 46°51' E 031°59'0 0.0
2017-Nov-11 19:30N 46°51' E 031°59'1 1.5
2017-Nov-11 19:00N 46°51' E 031°58'1 2.2
2017-Nov-11 18:28N 46°51' E 031°56'0 0.0
2017-Nov-11 17:58N 46°51' E 031°56'0 0.0
2017-Nov-11 17:28N 46°51' E 031°56'0 0.0
2017-Nov-11 16:55N 46°51' E 031°56'0 0.0
2017-Nov-11 16:25N 46°51' E 031°56'0 0.0
2017-Nov-11 15:58N 46°51' E 031°56'0 0.0
2017-Nov-11 15:28N 46°51' E 031°56'1 2.5
2017-Nov-11 15:00N 46°50' E 031°55'4 8.3
2017-Nov-11 14:30N 46°46' E 031°53'4 8.4
2017-Nov-11 14:00N 46°42' E 031°56'4 9.0
2017-Nov-11 13:30N 46°38' E 031°54'5 9.5
2017-Nov-11 12:59N 46°36' E 031°48'5 9.1
2017-Nov-11 12:27N 46°36' E 031°40'4 9.0
2017-Nov-11 11:59N 46°35' E 031°34'26 7.1
2017-Nov-11 08:17N 46°29' E 030°57'  
Track history (hours):
 
Tides and Currents Weather Stations Pressure Air Temp Water Temp Dewpoint Dewpoint Depression Visibility Wind Speed Wind Dir Waves Ship Positions

Nur

Last reported at 2017-Nov-20 00:30 UTC. Time now 2017-Nov-21 19:24 UTC.
Position N 43°39' E 039°02'.

Length 81 m; draft 3.4 m.

Type: Cargo ship. MMSI: 518100029.

Date/timePositionNaut miles runAvg speedWind from/ knotsBaromVisibWave heightAir tempDewpointWater temp
2017-Nov-20 00:30N 43°39' E 039°02'5 9.3
2017-Nov-20 00:00N 43°36' E 039°07'  
2017-Nov-14 07:05N 46°21' E 030°55'1 8.5
2017-Nov-14 06:58N 46°22' E 030°55'5 8.4
2017-Nov-14 06:24N 46°27' E 030°55'4 8.4
2017-Nov-14 05:53N 46°31' E 030°55'26 7.7
2017-Nov-14 02:33N 46°35' E 031°32'3 8.4
2017-Nov-14 02:11N 46°35' E 031°37'2 8.4
2017-Nov-14 01:58N 46°36' E 031°39'4 8.5
2017-Nov-14 01:29N 46°36' E 031°45'4 8.1
2017-Nov-14 01:00N 46°37' E 031°51'4 8.2
2017-Nov-14 00:30N 46°39' E 031°56'4 8.3
2017-Nov-14 00:00N 46°43' E 031°56'4 7.7
2017-Nov-13 23:30N 46°47' E 031°53'4 7.7
2017-Nov-13 23:00N 46°50' E 031°56'3 5.1
2017-Nov-13 22:30N 46°51' E 031°59'0 0.0
2017-Nov-13 22:00N 46°51' E 031°59'0 0.0
2017-Nov-13 02:00N 46°51' E 031°59'0 0.0
2017-Nov-13 01:30N 46°51' E 031°59'0 0.0
2017-Nov-13 01:00N 46°51' E 031°59'0 0.0
2017-Nov-13 00:30N 46°51' E 031°59'0 0.0
2017-Nov-13 00:00N 46°51' E 031°59'0 0.0
2017-Nov-12 23:27N 46°51' E 031°59'0 0.0
2017-Nov-12 23:00N 46°51' E 031°59'0 0.0
2017-Nov-12 22:30N 46°51' E 031°59'0 0.0
2017-Nov-12 22:00N 46°51' E 031°59'0 0.0
2017-Nov-12 21:30N 46°51' E 031°59'0 0.0
2017-Nov-12 21:00N 46°51' E 031°59'0 0.0
2017-Nov-12 20:27N 46°51' E 031°59'0 0.0
2017-Nov-12 20:00N 46°51' E 031°59'0 0.0
2017-Nov-12 19:30N 46°51' E 031°59'0 0.0
2017-Nov-12 19:00N 46°51' E 031°59'0 0.0
2017-Nov-12 18:30N 46°51' E 031°59'0 0.0
2017-Nov-12 18:00N 46°51' E 031°59'0 0.0
2017-Nov-12 17:30N 46°51' E 031°59'0 0.0
2017-Nov-12 17:00N 46°51' E 031°59'0 0.0
2017-Nov-12 16:30N 46°51' E 031°59'0 0.0
2017-Nov-12 16:00N 46°51' E 031°59'0 0.0
2017-Nov-12 15:30N 46°51' E 031°59'0 0.0
2017-Nov-12 15:00N 46°51' E 031°59'0 0.0
2017-Nov-12 14:30N 46°51' E 031°59'0 0.0
2017-Nov-12 14:00N 46°51' E 031°59'0 0.0
2017-Nov-12 13:30N 46°51' E 031°59'0 0.0
2017-Nov-12 13:00N 46°51' E 031°59'0 0.0
2017-Nov-12 12:30N 46°51' E 031°59'0 0.0
2017-Nov-12 12:00N 46°51' E 031°59'0 0.0
2017-Nov-12 11:30N 46°51' E 031°59'0 0.0
2017-Nov-12 11:00N 46°51' E 031°59'0 0.0
2017-Nov-12 10:30N 46°51' E 031°59'0 0.0
2017-Nov-12 10:00N 46°51' E 031°59'0 0.0
2017-Nov-12 09:30N 46°51' E 031°59'0 0.0
2017-Nov-12 09:00N 46°51' E 031°59'0 0.0
2017-Nov-12 08:30N 46°51' E 031°59'0 0.0
2017-Nov-12 07:57N 46°51' E 031°59'0 0.0
2017-Nov-12 07:30N 46°51' E 031°59'0 0.0
2017-Nov-12 07:00N 46°51' E 031°59'0 0.0
2017-Nov-12 06:30N 46°51' E 031°59'0 0.0
2017-Nov-12 06:00N 46°51' E 031°59'0 0.0
2017-Nov-12 05:30N 46°51' E 031°59'0 0.0
2017-Nov-12 05:00N 46°51' E 031°59'0 0.0
2017-Nov-12 04:30N 46°51' E 031°59'0 0.0
2017-Nov-12 04:00N 46°51' E 031°59'0 0.0
2017-Nov-12 03:30N 46°51' E 031°59'0 0.0
2017-Nov-12 03:00N 46°51' E 031°59'0 0.0
2017-Nov-12 02:30N 46°51' E 031°59'0 0.0
2017-Nov-12 02:00N 46°51' E 031°59'0 0.0
2017-Nov-12 01:30N 46°51' E 031°59'0 0.0
2017-Nov-12 01:00N 46°51' E 031°59'0 0.0
2017-Nov-12 00:30N 46°51' E 031°59'0 0.0
2017-Nov-12 00:00N 46°51' E 031°59'0 0.0
2017-Nov-11 23:30N 46°51' E 031°59'0 0.0
2017-Nov-11 23:00N 46°51' E 031°59'0 0.0
2017-Nov-11 22:30N 46°51' E 031°59'0 0.0
2017-Nov-11 22:00N 46°51' E 031°59'0 0.0
2017-Nov-11 21:27N 46°51' E 031°59'0 0.0
2017-Nov-11 21:00N 46°51' E 031°59'0 0.0
2017-Nov-11 20:30N 46°51' E 031°59'0 0.0
2017-Nov-11 20:00N 46°51' E 031°59'0 0.0
2017-Nov-11 19:30N 46°51' E 031°59'1 1.5
2017-Nov-11 19:00N 46°51' E 031°58'1 2.2
2017-Nov-11 18:28N 46°51' E 031°56'0 0.0
2017-Nov-11 17:58N 46°51' E 031°56'0 0.0
2017-Nov-11 17:28N 46°51' E 031°56'0 0.0
2017-Nov-11 16:55N 46°51' E 031°56'0 0.0
2017-Nov-11 16:25N 46°51' E 031°56'0 0.0
2017-Nov-11 15:58N 46°51' E 031°56'0 0.0
2017-Nov-11 15:28N 46°51' E 031°56'1 2.5
2017-Nov-11 15:00N 46°50' E 031°55'4 8.3
2017-Nov-11 14:30N 46°46' E 031°53'4 8.4
2017-Nov-11 14:00N 46°42' E 031°56'4 9.0
2017-Nov-11 13:30N 46°38' E 031°54'5 9.5
2017-Nov-11 12:59N 46°36' E 031°48'5 9.1
2017-Nov-11 12:27N 46°36' E 031°40'4 9.0
2017-Nov-11 11:59N 46°35' E 031°34'26 7.1
2017-Nov-11 08:17N 46°29' E 030°57'  

Dump ship's entire track history